Terminal Aerodrome Forecast
Issued by NWS

Home | Current Version | Previous Version | Text Only | Print | Product List | Glossary On
Versions: 1 2 3 4 5 6 7 8 9 10 11 12 13 14 15 16 17
000
FTUS43 KLSX 291700
TAFCPS
TAF
KCPS 291721Z 2918/3018 21008KT P6SM -SHRA VCTS BKN040CB
      TEMPO 2918/2920 VRB25KT 2SM -TSRA BR BKN025CB
     FM292200 22007KT P6SM SCT050 BKN100
     FM300400 17006KT 4SM -TSRA BR BKN035CB
     FM301100 20007KT P6SM -SHRA SCT015 BKN025
     FM301700 29009KT P6SM OVC015=

USA.gov is the U.S. government's official web portal to all federal, state and local government web resources and services.